Time,TemperatureF,DewpointF,PressureIn,WindDirection,WindDirectionDegrees,WindSpeedMPH,WindSpeedGustMPH,Humidity,HourlyPrecipIn,Conditions,Clouds,dailyrainin,SoftwareType,DateUTC
2013-01-06 00:00:00,31.6,13.3,30.22,NNW,342,0.0,0.0,46,0.00,,---,0.00,VWS V12.08,2013-01-06 05:00:00,
2013-01-06 00:20:00,32.2,13.8,30.22,NNW,342,0.0,0.0,46,0.00,,---,0.00,VWS V12.08,2013-01-06 05:20:00,
2013-01-06 00:40:00,32.2,13.8,30.22,NNW,341,0.0,0.0,46,0.00,,---,0.00,VWS V12.08,2013-01-06 05:40:00,
2013-01-06 01:00:00,32.2,13.8,30.22,NNW,342,0.0,0.0,46,0.00,,---,0.00,VWS V12.08,2013-01-06 06:00:00,
2013-01-06 01:20:00,32.5,14.2,30.22,NNW,341,0.0,0.0,46,0.00,,---,0.00,VWS V12.08,2013-01-06 06:20:00,
2013-01-06 01:40:00,32.5,14.2,30.19,ENE,76,0.0,0.0,46,0.00,,---,0.00,VWS V12.08,2013-01-06 06:40:00,
2013-01-06 02:00:00,32.7,14.3,30.19,ENE,75,0.0,0.0,46,0.00,,---,0.00,VWS V12.08,2013-01-06 07:00:00,
2013-01-06 02:20:00,32.7,14.3,30.22,ENE,76,0.0,0.0,46,0.00,,---,0.00,VWS V12.08,2013-01-06 07:20:00,
2013-01-06 02:40:00,33.1,14.1,30.19,ESE,104,0.0,0.0,45,0.00,,---,0.00,VWS V12.08,2013-01-06 07:40:00,
2013-01-06 03:01:00,33.8,14.8,30.16,South,179,0.0,4.9,45,0.00,,---,0.00,VWS V12.08,2013-01-06 08:01:00,
2013-01-06 03:21:00,33.6,15.7,30.19,SSW,202,0.0,3.6,47,0.00,,---,0.00,VWS V12.08,2013-01-06 08:21:00,
2013-01-06 03:41:00,33.3,17.9,30.13,WSW,252,2.2,4.9,53,0.00,,---,0.00,VWS V12.08,2013-01-06 08:41:00,
2013-01-06 04:01:00,33.3,19.3,30.13,East,99,0.0,4.9,56,0.00,,---,0.00,VWS V12.08,2013-01-06 09:01:00,
2013-01-06 04:21:00,33.4,19.5,30.13,SE,126,0.0,0.0,56,0.00,,---,0.00,VWS V12.08,2013-01-06 09:21:00,
2013-01-06 04:41:00,33.6,20.1,30.13,ENE,72,0.0,3.6,57,0.00,,---,0.00,VWS V12.08,2013-01-06 09:41:00,
2013-01-06 05:01:00,33.6,20.1,30.13,ENE,73,0.0,0.0,57,0.00,,---,0.00,VWS V12.08,2013-01-06 10:01:00,
2013-01-06 05:21:00,33.6,20.5,30.13,NW,316,0.0,0.0,58,0.00,,---,0.00,VWS V12.08,2013-01-06 10:21:00,
2013-01-06 05:41:00,33.8,20.3,30.13,NW,316,0.0,0.0,57,0.00,,---,0.00,VWS V12.08,2013-01-06 10:41:00,
2013-01-06 06:01:00,33.6,20.1,30.13,NW,315,0.0,0.0,57,0.00,,---,0.00,VWS V12.08,2013-01-06 11:01:00,
2013-01-06 06:21:00,33.6,20.5,30.13,NW,316,0.0,0.0,58,0.00,,---,0.00,VWS V12.08,2013-01-06 11:21:00,
2013-01-06 06:41:00,33.6,20.5,30.13,NW,316,0.0,0.0,58,0.00,,---,0.00,VWS V12.08,2013-01-06 11:41:00,
2013-01-06 07:01:00,33.6,20.5,30.13,NW,316,0.0,0.0,58,0.00,,---,0.00,VWS V12.08,2013-01-06 12:01:00,
2013-01-06 07:21:00,33.6,20.5,30.13,NW,316,0.0,0.0,58,0.00,,---,0.00,VWS V12.08,2013-01-06 12:21:00,
2013-01-06 07:41:00,33.8,20.3,30.13,NW,316,0.0,0.0,57,0.00,,---,0.00,VWS V12.08,2013-01-06 12:41:00,
2013-01-06 08:01:00,33.8,20.7,30.13,WNW,301,0.0,0.0,58,0.00,,---,0.00,VWS V12.08,2013-01-06 13:01:00,
2013-01-06 08:21:00,34.3,19.9,30.10,WSW,253,2.7,5.8,55,0.00,,---,0.00,VWS V12.08,2013-01-06 13:21:00,
2013-01-06 08:41:00,35.1,19.6,30.10,WSW,258,0.0,4.0,53,0.00,,---,0.00,VWS V12.08,2013-01-06 13:41:00,
2013-01-06 09:01:00,35.4,18.9,30.10,West,264,2.2,6.3,51,0.00,,---,0.00,VWS V12.08,2013-01-06 14:01:00,
2013-01-06 09:21:00,36.1,18.5,30.10,South,189,3.1,6.3,48,0.00,,---,0.00,VWS V12.08,2013-01-06 14:21:00,
2013-01-06 09:41:00,36.3,18.7,30.10,West,276,0.0,6.3,48,0.00,,---,0.00,VWS V12.08,2013-01-06 14:41:00,
2013-01-06 10:01:00,37.0,18.3,30.10,South,185,2.7,5.8,46,0.00,,---,0.00,VWS V12.08,2013-01-06 15:01:00,
2013-01-06 10:21:00,38.5,18.5,30.10,West,265,2.7,8.3,44,0.00,,---,0.00,VWS V12.08,2013-01-06 15:21:00,
2013-01-06 10:41:00,39.7,19.0,30.10,WNW,293,3.6,6.3,43,0.00,,---,0.00,VWS V12.08,2013-01-06 15:41:00,
2013-01-06 11:01:00,41.0,20.2,30.10,WNW,289,4.0,8.3,43,0.00,,---,0.00,VWS V12.08,2013-01-06 16:01:00,
2013-01-06 11:21:00,42.4,21.5,30.07,West,260,3.6,8.1,43,0.00,,---,0.00,VWS V12.08,2013-01-06 16:21:00,
2013-01-06 11:41:00,43.5,21.9,30.07,West,268,5.4,8.7,42,0.00,,---,0.00,VWS V12.08,2013-01-06 16:41:00,
2013-01-06 12:01:00,44.8,23.0,30.04,West,266,3.6,8.7,42,0.00,,---,0.00,VWS V12.08,2013-01-06 17:01:00,
2013-01-06 12:21:00,45.5,23.6,30.04,SW,218,6.3,8.3,42,0.00,,---,0.00,VWS V12.08,2013-01-06 17:21:00,
2013-01-06 12:41:00,46.6,24.0,30.04,West,263,4.0,10.1,41,0.00,,---,0.00,VWS V12.08,2013-01-06 17:41:00,
2013-01-06 13:01:00,46.9,24.3,30.01,WSW,251,10.1,10.5,41,0.00,,---,0.00,VWS V12.08,2013-01-06 18:01:00,
2013-01-06 13:21:00,47.1,24.5,30.01,SW,231,6.3,11.0,41,0.00,,---,0.00,VWS V12.08,2013-01-06 18:21:00,
2013-01-06 13:41:00,46.8,24.1,29.98,WNW,301,3.1,8.7,41,0.00,,---,0.00,VWS V12.08,2013-01-06 18:41:00,
2013-01-06 14:01:00,47.7,25.0,29.98,SSW,198,3.1,12.3,41,0.00,,---,0.00,VWS V12.08,2013-01-06 19:01:00,
2013-01-06 14:21:00,47.5,24.8,29.98,West,266,5.8,11.0,41,0.00,,---,0.00,VWS V12.08,2013-01-06 19:21:00,
2013-01-06 14:41:00,48.0,25.3,29.98,WNW,290,5.4,12.8,41,0.00,,---,0.00,VWS V12.08,2013-01-06 19:41:00,
2013-01-06 15:01:00,47.5,24.8,29.98,WNW,291,4.0,11.0,41,0.00,,---,0.00,VWS V12.08,2013-01-06 20:01:00,
2013-01-06 15:21:00,47.1,24.5,29.98,West,278,8.3,11.0,41,0.00,,---,0.00,VWS V12.08,2013-01-06 20:21:00,
2013-01-06 15:41:00,46.6,24.0,29.98,West,279,6.3,10.5,41,0.00,,---,0.00,VWS V12.08,2013-01-06 20:41:00,
2013-01-06 16:01:00,45.7,23.8,29.98,West,272,6.3,11.0,42,0.00,,---,0.00,VWS V12.08,2013-01-06 21:01:00,
2013-01-06 16:21:00,44.8,23.0,29.98,West,275,0.0,8.1,42,0.00,,---,0.00,VWS V12.08,2013-01-06 21:21:00,
2013-01-06 16:41:00,43.2,21.5,29.98,West,268,0.0,3.6,42,0.00,,---,0.00,VWS V12.08,2013-01-06 21:41:00,
2013-01-06 17:01:00,41.7,20.8,30.01,West,269,0.0,0.0,43,0.00,,---,0.00,VWS V12.08,2013-01-06 22:01:00,
2013-01-06 17:21:00,39.9,19.2,30.01,WSW,250,0.0,0.0,43,0.00,,---,0.00,VWS V12.08,2013-01-06 22:21:00,
2013-01-06 17:41:00,39.0,19.0,30.01,WSW,251,0.0,0.0,44,0.00,,---,0.00,VWS V12.08,2013-01-06 22:41:00,
2013-01-06 18:01:00,39.2,18.5,30.01,WSW,250,0.0,0.0,43,0.00,,---,0.00,VWS V12.08,2013-01-06 23:01:00,
2013-01-06 18:21:00,39.2,18.5,30.01,WSW,251,0.0,0.0,43,0.00,,---,0.00,VWS V12.08,2013-01-06 23:21:00,
2013-01-06 18:41:00,39.2,18.5,30.01,WSW,251,0.0,0.0,43,0.00,,---,0.00,VWS V12.08,2013-01-06 23:41:00,
2013-01-06 19:01:00,39.2,18.5,30.01,WSW,255,0.0,0.0,43,0.00,,---,0.00,VWS V12.08,2013-01-07 00:01:00,
2013-01-06 19:21:00,39.2,18.5,30.04,WSW,255,0.0,0.0,43,0.00,,---,0.00,VWS V12.08,2013-01-07 00:21:00,
2013-01-06 19:41:00,39.2,18.5,30.04,WSW,255,0.0,0.0,43,0.00,,---,0.00,VWS V12.08,2013-01-07 00:41:00,
2013-01-06 20:01:00,39.2,18.5,30.04,WSW,255,0.0,0.0,43,0.00,,---,0.00,VWS V12.08,2013-01-07 01:01:00,
2013-01-06 20:21:00,39.0,19.0,30.04,WSW,254,0.0,0.0,44,0.00,,---,0.00,VWS V12.08,2013-01-07 01:21:00,
2013-01-06 20:41:00,39.0,19.0,30.04,WSW,254,0.0,0.0,44,0.00,,---,0.00,VWS V12.08,2013-01-07 01:41:00,
2013-01-06 21:01:00,38.7,18.6,30.04,WSW,255,0.0,0.0,44,0.00,,---,0.00,VWS V12.08,2013-01-07 02:01:00,
2013-01-06 21:21:00,38.7,18.6,30.04,WSW,255,0.0,0.0,44,0.00,,---,0.00,VWS V12.08,2013-01-07 02:21:00,
2013-01-06 21:41:00,38.3,18.3,30.04,WSW,254,0.0,0.0,44,0.00,,---,0.00,VWS V12.08,2013-01-07 02:41:00,
2013-01-06 22:01:00,38.1,18.1,30.04,WSW,254,0.0,0.0,44,0.00,,---,0.00,VWS V12.08,2013-01-07 03:01:00,
2013-01-06 22:21:00,38.1,18.1,30.07,WSW,255,0.0,0.0,44,0.00,,---,0.00,VWS V12.08,2013-01-07 03:21:00,
2013-01-06 22:41:00,37.9,18.0,30.04,WSW,254,0.0,0.0,44,0.00,,---,0.00,VWS V12.08,2013-01-07 03:41:00,
2013-01-06 23:01:00,37.4,17.5,30.07,WSW,254,0.0,0.0,44,0.00,,---,0.00,VWS V12.08,2013-01-07 04:01:00,
2013-01-06 23:21:00,37.2,17.9,30.07,WSW,255,0.0,0.0,45,0.00,,---,0.00,VWS V12.08,2013-01-07 04:21:00,
2013-01-06 23:41:00,36.9,17.6,30.07,West,275,0.0,3.1,45,0.00,,---,0.00,VWS V12.08,2013-01-07 04:41:00,